Airfield :
LOGIN :

Register | Disclaimer

   EN    FR    IT 

 










Legend :    VFR   Marginal VFR   IFR   Intensive IFR   Very Intensive IFR
Visi :
Ceiling :
>= 8 km
>= 3000ft
5 to 8 km
1000 to 3000 ft
1500m to 5 km
500 to 1000 ft
800 to 1500m
200 to 500 ft
< 800m
< 200 ft
Symbols :   Thunderstorms  Fog  Heavy snow  Heavy precipitations  Wind > 20 kt
SIGMETs :     Misc.  Thunderstorms  Icing  Turbulence  Mountain Waves  Volcanic Ashes






- Airport Elevation : 423 ft
- IATA code : PIS


LFBI - Poitiers

CURRENT METAR :
  • 171200Z AUTO 31011KT 270V360 9999 BKN044 BKN052 BKN064 12/04 Q1018 TEMPO 4000 SHRA BKN040TCU

EXPIRED METARs :
  • 171130Z AUTO 31010KT 280V350 9999 SCT040 BKN054 BKN068 13/04 Q1018 TEMPO 4000 SHRA BKN040TCU
  • 171100Z AUTO 31009KT 280V360 9999 BKN035 BKN041 BKN047 12/05 Q1018 TEMPO 4000 SHRA BKN040TCU
  • 171030Z AUTO 34009KT 310V010 9999 SCT031 BKN037 BKN043 12/05 Q1018 TEMPO 4000 SHRA BKN040TCU
  • 171000Z AUTO 33007KT 290V010 9999 FEW026 SCT036 BKN044 12/05 Q1019 NOSIG
  • 170930Z AUTO 35009KT 290V020 9999 BKN021 BKN045 12/06 Q1019 NOSIG
  • 170900Z AUTO 34005KT 280V010 9999 BKN015 10/07 Q1019 NOSIG
  • 170830Z AUTO 32008KT 290V350 9999 BKN012 09/06 Q1019 BECMG SCT040
  • 170800Z AUTO 34009KT 300V360 9999 BKN010 09/06 Q1019 BECMG SCT040
  • 170730Z AUTO 33010KT 9999 FEW009 08/06 Q1019 NOSIG

TAF TAF LFBI
Valid from the 17 at 12:00 until the 18 at 12:00 UTC


171100Z 1712/1812 33008KT 9999 SCT030
TEMPO 1712/1722 4000 SHRA BKN040TCU
TEMPO 1803/1807 4500 -RA BKN014
BECMG 1808/1810 02010KT



MET'MAP, your aeronautical weather chart ! - Copyright ORBIFLY December 2007 - Disclaimer

ORBIFLY MET'MAP TEAM :

Programming & Development : Alexandra Zaïnal
Original concept : Baudouin d'Aumeries
Technical & hardware support : Manuel Goepfert
Assistance : Marc-Olivier Méhu




SOURCES & CREDITS :

   NOAA